Disclaimer

Please do not use the information listed here in-flight or in-navigation, as they are not provided to us by the airports but are provided by volunteers, so they might be outdated.

Search


Regions


Airport information page

Radio informations:
Tower (TWR) - 119.6 MHz
RDO - 5859 MHz
Ground (GND) - 121.9 MHz
RADAR - 123.4 MHz

Airport informations:
Latitude: 27° 10' 41.94" N
Longitude: 033° 47' 57.97" E
Elevation: 52 feet - 16 meters
Operating hours: UNKNOWN
Operating agency: Civil government, landing fees and diplomatic clearance may be required
Timezone: UTC+2(+3DT) - Dates notified by NOTAM
Fuel: Jet A1, without icing nhibitor.

Unknown fuel type or whether there is any fuel.

Runway information:
16/34 - 13124 x 148 feet< - >4000 x 45 meters

Recent METARs:
HEGN 130300Z 32011KT CAVOK 19/11 Q1014 NOSIG
HEGN 130400Z 32010KT CAVOK 19/11 Q1014 NOSIG
HEGN 130400Z 32010KT CAVOK 19/11 Q1014 NOSIG

Airport on the map: